createdAt,value
2023-01-18T00:00:14.008Z,0.00
2023-01-18T00:01:13.478Z,0.00
2023-01-18T00:02:13.503Z,0.00
2023-01-18T00:03:14.122Z,0.00
2023-01-18T00:04:13.056Z,0.00
2023-01-18T00:05:13.162Z,0.00
2023-01-18T00:06:13.032Z,0.00
2023-01-18T00:07:13.029Z,0.00
2023-01-18T00:08:13.009Z,0.00
2023-01-18T00:09:13.500Z,0.00
2023-01-18T00:10:13.345Z,0.00
2023-01-18T00:11:13.319Z,0.00
2023-01-18T00:12:13.711Z,0.00
2023-01-18T00:13:13.696Z,0.00
2023-01-18T00:14:14.242Z,0.00
2023-01-18T00:15:13.247Z,0.00
2023-01-18T00:16:13.167Z,0.00
2023-01-18T00:17:13.191Z,0.00
2023-01-18T00:18:13.096Z,0.00
2023-01-18T00:19:13.249Z,0.00
2023-01-18T00:20:13.164Z,0.00
2023-01-18T00:21:13.330Z,0.00
2023-01-18T00:22:13.259Z,0.00
2023-01-18T00:23:13.168Z,0.00
2023-01-18T00:24:13.288Z,0.00
2023-01-18T00:25:13.359Z,0.00
2023-01-18T00:26:13.318Z,0.00
2023-01-18T00:27:13.255Z,0.00
2023-01-18T00:28:13.187Z,0.00
2023-01-18T00:29:13.306Z,0.00
2023-01-18T00:30:13.244Z,0.00
2023-01-18T00:31:13.677Z,0.00
2023-01-18T00:32:13.704Z,0.00
2023-01-18T00:33:13.715Z,0.00
2023-01-18T00:34:13.626Z,0.00
2023-01-18T00:35:13.583Z,0.00
2023-01-18T00:36:13.480Z,0.00
2023-01-18T00:37:13.384Z,0.00
2023-01-18T00:38:13.726Z,0.00
2023-01-18T00:39:13.857Z,0.00
2023-01-18T00:40:13.778Z,0.00
2023-01-18T00:41:13.803Z,0.00
2023-01-18T00:42:13.768Z,0.00
2023-01-18T00:43:14.002Z,0.00
2023-01-18T00:44:13.532Z,0.00
2023-01-18T00:45:18.581Z,0.00
2023-01-18T00:46:13.650Z,0.00
2023-01-18T00:47:13.709Z,0.00
2023-01-18T00:48:13.611Z,0.00
2023-01-18T00:49:13.611Z,0.00
2023-01-18T00:50:13.519Z,0.00
2023-01-18T00:51:13.421Z,0.00
2023-01-18T00:52:13.471Z,0.00
2023-01-18T00:53:18.692Z,0.00
2023-01-18T00:54:13.595Z,0.00
2023-01-18T00:55:13.505Z,0.00
2023-01-18T00:56:14.185Z,0.00
2023-01-18T00:57:13.587Z,0.00
2023-01-18T00:58:13.922Z,0.00
2023-01-18T00:59:13.179Z,0.00
2023-01-18T01:00:13.187Z,0.00
2023-01-18T01:01:13.263Z,0.00
2023-01-18T01:02:13.565Z,0.00
2023-01-18T01:03:13.586Z,0.00
2023-01-18T01:04:13.483Z,0.00
2023-01-18T01:05:13.649Z,0.00
2023-01-18T01:06:13.970Z,0.00
2023-01-18T01:07:13.312Z,0.00
2023-01-18T01:08:18.210Z,0.00
2023-01-18T01:09:13.424Z,0.00
2023-01-18T01:10:13.361Z,0.00
2023-01-18T01:11:13.323Z,0.00
2023-01-18T01:12:13.398Z,0.00
2023-01-18T01:13:13.352Z,0.00
2023-01-18T01:14:13.452Z,0.00
2023-01-18T01:15:13.398Z,0.00
2023-01-18T01:16:13.568Z,0.00
2023-01-18T01:17:13.541Z,0.00
2023-01-18T01:18:13.482Z,0.00
2023-01-18T01:19:13.391Z,0.00
2023-01-18T01:20:13.276Z,0.00
2023-01-18T01:21:13.723Z,0.00
2023-01-18T01:22:13.660Z,0.00
2023-01-18T01:23:13.684Z,0.00
2023-01-18T01:24:14.895Z,0.00
2023-01-18T01:25:12.858Z,0.00
2023-01-18T01:26:13.869Z,0.00
2023-01-18T01:27:14.210Z,0.00
2023-01-18T01:28:13.283Z,0.00
2023-01-18T01:29:13.497Z,0.00
2023-01-18T01:30:13.411Z,0.00
2023-01-18T01:31:13.400Z,0.00
2023-01-18T01:32:13.342Z,0.00
2023-01-18T01:33:13.683Z,0.00
2023-01-18T01:34:13.600Z,0.00
2023-01-18T01:35:13.447Z,0.00
2023-01-18T01:36:13.516Z,0.00
2023-01-18T01:37:13.758Z,0.00
2023-01-18T01:38:13.760Z,0.00
2023-01-18T01:39:13.633Z,0.00
2023-01-18T01:40:13.657Z,0.00
2023-01-18T01:41:13.856Z,0.00
2023-01-18T01:42:14.179Z,0.00
2023-01-18T01:43:13.279Z,0.00
2023-01-18T01:44:13.478Z,0.00
2023-01-18T01:45:13.309Z,0.00
2023-01-18T01:46:13.363Z,0.00
2023-01-18T01:47:13.519Z,0.00
2023-01-18T01:48:13.426Z,0.00
2023-01-18T01:49:13.297Z,0.00
2023-01-18T01:50:13.231Z,0.00
2023-01-18T01:51:13.109Z,0.00
2023-01-18T01:52:13.167Z,0.00
2023-01-18T01:53:13.362Z,0.00
2023-01-18T01:54:13.334Z,0.00
2023-01-18T01:55:13.472Z,0.00
2023-01-18T01:56:13.443Z,0.00
2023-01-18T01:57:13.357Z,0.00
2023-01-18T01:58:13.737Z,0.00
2023-01-18T01:59:13.794Z,0.00
2023-01-18T02:00:13.721Z,0.00
2023-01-18T02:01:14.278Z,0.00
2023-01-18T02:02:13.723Z,0.00
2023-01-18T02:03:13.994Z,0.00
2023-01-18T02:04:13.166Z,0.00
2023-01-18T02:05:13.200Z,0.00
2023-01-18T02:06:13.318Z,0.00
2023-01-18T02:07:13.264Z,0.00
2023-01-18T02:08:13.587Z,0.00
2023-01-18T02:09:13.622Z,0.00
2023-01-18T02:10:13.747Z,0.00
2023-01-18T02:11:13.603Z,0.00
2023-01-18T02:12:13.510Z,0.00
2023-01-18T02:13:13.833Z,0.00
2023-01-18T02:14:13.805Z,0.00
2023-01-18T02:15:13.987Z,0.00
2023-01-18T02:16:12.873Z,0.00
2023-01-18T02:17:13.764Z,0.00
2023-01-18T02:18:14.077Z,0.00
2023-01-18T02:19:13.203Z,0.00
2023-01-18T02:20:13.315Z,0.00
2023-01-18T02:21:13.385Z,0.00
2023-01-18T02:22:13.325Z,0.00
2023-01-18T02:23:13.353Z,0.00
2023-01-18T02:24:13.417Z,0.00
2023-01-18T02:25:13.509Z,0.00
2023-01-18T02:26:13.488Z,0.00
2023-01-18T02:27:13.377Z,0.00
2023-01-18T02:28:13.291Z,0.00
2023-01-18T02:29:13.365Z,0.00
2023-01-18T02:30:13.180Z,0.00
2023-01-18T02:31:13.173Z,0.00
2023-01-18T02:32:13.451Z,0.00
2023-01-18T02:33:13.473Z,0.00
2023-01-18T02:34:13.376Z,0.00
2023-01-18T02:35:13.191Z,0.00
2023-01-18T02:36:13.527Z,0.00
2023-01-18T02:37:13.459Z,0.00
2023-01-18T02:38:13.323Z,0.00
2023-01-18T02:39:13.631Z,0.00
2023-01-18T02:40:13.539Z,0.00
2023-01-18T02:41:13.485Z,0.00
2023-01-18T02:42:13.656Z,0.00
2023-01-18T02:43:13.558Z,0.00
2023-01-18T02:44:13.706Z,0.00
2023-01-18T02:45:13.972Z,0.00
2023-01-18T02:46:12.921Z,0.00
2023-01-18T02:47:13.049Z,0.00
2023-01-18T02:48:13.013Z,0.00
2023-01-18T02:49:12.969Z,0.00
2023-01-18T02:50:12.872Z,0.00
2023-01-18T02:51:13.843Z,0.00
2023-01-18T02:52:13.767Z,0.00
2023-01-18T02:53:13.709Z,0.00
2023-01-18T02:54:13.583Z,0.00
2023-01-18T02:55:13.539Z,0.00
2023-01-18T02:56:13.458Z,0.00
2023-01-18T02:57:13.409Z,0.00
2023-01-18T02:58:13.403Z,0.00
2023-01-18T02:59:15.449Z,0.00
2023-01-18T03:00:13.466Z,0.00
2023-01-18T03:01:13.663Z,0.00
2023-01-18T03:02:13.742Z,0.00
2023-01-18T03:03:13.816Z,0.00
2023-01-18T03:04:14.262Z,0.00
2023-01-18T03:05:13.211Z,0.00
2023-01-18T03:06:13.280Z,0.00
2023-01-18T03:07:13.143Z,0.00
2023-01-18T03:08:13.412Z,0.00
2023-01-18T03:09:13.802Z,0.00
2023-01-18T03:10:13.833Z,0.00
2023-01-18T03:11:13.755Z,0.00
2023-01-18T03:12:13.942Z,0.00
2023-01-18T03:13:13.063Z,0.00
2023-01-18T03:14:13.397Z,0.00
2023-01-18T03:15:13.412Z,0.00
2023-01-18T03:16:13.311Z,0.00
2023-01-18T03:17:13.135Z,0.00
2023-01-18T03:18:13.173Z,0.00
2023-01-18T03:19:13.061Z,0.00
2023-01-18T03:20:13.040Z,0.00
2023-01-18T03:21:12.960Z,0.00
2023-01-18T03:22:13.094Z,0.00
2023-01-18T03:23:13.064Z,0.00
2023-01-18T03:24:12.993Z,0.00
2023-01-18T03:25:13.074Z,0.00
2023-01-18T03:26:13.031Z,0.00
2023-01-18T03:27:12.902Z,0.00
2023-01-18T03:28:13.122Z,0.00
2023-01-18T03:29:13.333Z,0.00
2023-01-18T03:30:13.337Z,0.00
2023-01-18T03:31:13.469Z,0.00
2023-01-18T03:32:13.384Z,0.00
2023-01-18T03:33:13.237Z,0.00
2023-01-18T03:34:13.137Z,0.00
2023-01-18T03:35:13.264Z,0.00
2023-01-18T03:36:13.583Z,0.00
2023-01-18T03:37:13.738Z,0.00
2023-01-18T03:38:13.697Z,0.00
2023-01-18T03:39:13.685Z,0.00
2023-01-18T03:40:13.614Z,0.00
2023-01-18T03:41:13.581Z,0.00
2023-01-18T03:42:13.813Z,0.00
2023-01-18T03:43:14.037Z,0.00
2023-01-18T03:44:13.146Z,0.00
2023-01-18T03:45:13.035Z,0.00
2023-01-18T03:46:12.948Z,0.00
2023-01-18T03:47:12.884Z,0.00
2023-01-18T03:48:13.129Z,0.00
2023-01-18T03:49:13.460Z,0.00
2023-01-18T03:50:13.520Z,0.00
2023-01-18T03:51:13.640Z,0.00
2023-01-18T03:52:13.515Z,0.00
2023-01-18T03:53:13.589Z,0.00
2023-01-18T03:54:13.661Z,0.00
2023-01-18T03:55:13.553Z,0.00
2023-01-18T03:56:13.550Z,0.00
2023-01-18T03:57:13.678Z,0.00
2023-01-18T03:58:13.586Z,0.00
2023-01-18T03:59:13.880Z,0.00
2023-01-18T04:00:13.752Z,0.00
2023-01-18T04:01:13.944Z,0.00
2023-01-18T04:02:13.014Z,0.00
2023-01-18T04:03:13.022Z,0.00
2023-01-18T04:04:13.133Z,0.00
2023-01-18T04:05:13.245Z,0.00
2023-01-18T04:06:13.207Z,0.00
2023-01-18T04:07:13.116Z,0.00
2023-01-18T04:08:13.094Z,0.00
2023-01-18T04:09:13.141Z,0.00
2023-01-18T04:10:13.012Z,0.00
2023-01-18T04:11:13.040Z,0.00
2023-01-18T04:12:12.964Z,0.00
2023-01-18T04:13:12.938Z,0.00
2023-01-18T04:14:12.880Z,0.00
2023-01-18T04:15:14.081Z,0.00
2023-01-18T04:16:13.083Z,0.00
2023-01-18T04:17:13.158Z,0.00
2023-01-18T04:18:13.186Z,0.00
2023-01-18T04:19:13.599Z,0.00
2023-01-18T04:20:13.969Z,0.00
2023-01-18T04:21:12.937Z,0.00
2023-01-18T04:22:12.852Z,0.00
2023-01-18T04:23:14.082Z,0.00
2023-01-18T04:24:12.964Z,0.00
2023-01-18T04:25:13.075Z,0.00
2023-01-18T04:26:13.359Z,0.00
2023-01-18T04:27:13.726Z,0.00
2023-01-18T04:28:14.313Z,0.00
2023-01-18T04:29:13.218Z,0.00
2023-01-18T04:30:13.272Z,0.00
2023-01-18T04:31:13.246Z,0.00
2023-01-18T04:32:13.557Z,0.00
2023-01-18T04:33:13.471Z,0.00
2023-01-18T04:34:13.474Z,0.00
2023-01-18T04:35:13.833Z,0.00
2023-01-18T04:36:14.057Z,0.00
2023-01-18T04:37:12.985Z,0.00
2023-01-18T04:38:13.140Z,0.00
2023-01-18T04:39:13.159Z,0.00
2023-01-18T04:40:13.113Z,0.00
2023-01-18T04:41:12.970Z,0.00
2023-01-18T04:42:12.824Z,0.00
2023-01-18T04:43:14.006Z,0.00
2023-01-18T04:44:12.953Z,0.00
2023-01-18T04:45:12.861Z,0.00
2023-01-18T04:46:13.412Z,0.00
2023-01-18T04:47:13.473Z,0.00
2023-01-18T04:48:13.446Z,0.00
2023-01-18T04:49:13.358Z,0.00
2023-01-18T04:50:13.267Z,0.00
2023-01-18T04:51:13.431Z,0.00
2023-01-18T04:52:13.408Z,0.00
2023-01-18T04:53:13.770Z,0.00
2023-01-18T04:54:13.950Z,0.00
2023-01-18T04:55:13.016Z,0.00
2023-01-18T04:56:13.372Z,0.00
2023-01-18T04:57:13.378Z,0.00
2023-01-18T04:58:13.447Z,0.00
2023-01-18T04:59:13.831Z,0.00
2023-01-18T05:00:13.708Z,0.00
2023-01-18T05:01:13.892Z,0.00
2023-01-18T05:02:13.236Z,0.00
2023-01-18T05:03:13.318Z,0.00
2023-01-18T05:04:13.475Z,0.00
2023-01-18T05:05:13.453Z,0.00
2023-01-18T05:06:13.582Z,0.00
2023-01-18T05:07:13.849Z,0.00
2023-01-18T05:08:13.744Z,0.00
2023-01-18T05:09:13.821Z,0.00
2023-01-18T05:10:13.792Z,0.00
2023-01-18T05:11:13.921Z,0.00
2023-01-18T05:12:12.766Z,0.00
2023-01-18T05:13:14.062Z,0.00
2023-01-18T05:14:13.678Z,0.00
2023-01-18T05:15:13.721Z,0.00
2023-01-18T05:16:13.947Z,0.00
2023-01-18T05:17:13.148Z,0.00
2023-01-18T05:18:13.032Z,0.00
2023-01-18T05:19:12.991Z,0.00
2023-01-18T05:20:13.087Z,0.00
2023-01-18T05:21:13.055Z,0.00
2023-01-18T05:22:12.985Z,0.00
2023-01-18T05:23:12.881Z,0.00
2023-01-18T05:24:14.127Z,0.00
2023-01-18T05:25:13.070Z,0.00
2023-01-18T05:26:13.025Z,0.00
2023-01-18T05:27:13.097Z,0.00
2023-01-18T05:28:13.101Z,0.00
2023-01-18T05:29:12.992Z,0.00
2023-01-18T05:30:12.980Z,0.00
2023-01-18T05:31:12.928Z,0.00
2023-01-18T05:32:12.908Z,0.00
2023-01-18T05:33:12.784Z,0.00
2023-01-18T05:34:13.895Z,0.00
2023-01-18T05:35:12.783Z,0.00
2023-01-18T05:36:14.014Z,0.00
2023-01-18T05:37:13.095Z,0.00
2023-01-18T05:38:13.003Z,0.00
2023-01-18T05:39:12.964Z,0.00
2023-01-18T05:40:12.986Z,0.00
2023-01-18T05:41:12.859Z,0.00
2023-01-18T05:42:13.784Z,0.00
2023-01-18T05:43:13.894Z,0.00
2023-01-18T05:44:12.948Z,0.00
2023-01-18T05:45:13.026Z,0.00
2023-01-18T05:46:13.070Z,0.00
2023-01-18T05:47:13.463Z,0.00
2023-01-18T05:48:13.668Z,0.00
2023-01-18T05:49:13.561Z,0.00
2023-01-18T05:50:13.484Z,0.00
2023-01-18T05:51:13.509Z,0.00
2023-01-18T05:52:14.267Z,0.00
2023-01-18T05:54:13.553Z,0.00
2023-01-18T05:54:50.050Z,0.00
2023-01-18T05:55:13.017Z,0.00
2023-01-18T05:56:12.944Z,0.00
2023-01-18T05:57:12.779Z,0.00
2023-01-18T05:58:13.707Z,0.00
2023-01-18T05:59:13.639Z,0.00
2023-01-18T06:00:13.977Z,0.00
2023-01-18T06:01:13.175Z,0.00
2023-01-18T06:02:13.460Z,0.00
2023-01-18T06:03:13.401Z,0.00
2023-01-18T06:04:13.509Z,0.00
2023-01-18T06:05:13.390Z,0.00
2023-01-18T06:06:13.318Z,0.00
2023-01-18T06:07:13.408Z,0.00
2023-01-18T06:08:13.418Z,0.00
2023-01-18T06:09:13.585Z,0.00
2023-01-18T06:10:13.740Z,0.00
2023-01-18T06:11:14.086Z,0.00
2023-01-18T06:12:13.296Z,0.00
2023-01-18T06:13:13.638Z,0.00
2023-01-18T06:14:14.129Z,0.00
2023-01-18T06:15:13.265Z,0.00
2023-01-18T06:16:13.267Z,0.00
2023-01-18T06:17:13.143Z,0.00
2023-01-18T06:18:13.250Z,0.00
2023-01-18T06:19:16.975Z,0.00
2023-01-18T06:20:13.280Z,0.00
2023-01-18T06:21:13.391Z,0.00
2023-01-18T06:22:13.224Z,0.00
2023-01-18T06:23:13.557Z,0.00
2023-01-18T06:24:13.420Z,0.00
2023-01-18T06:25:13.368Z,0.00
2023-01-18T06:26:13.656Z,0.00
2023-01-18T06:27:13.663Z,0.00
2023-01-18T06:28:13.797Z,0.00
2023-01-18T06:29:13.756Z,0.00
2023-01-18T06:30:13.914Z,0.00
2023-01-18T06:31:12.890Z,0.00
2023-01-18T06:32:12.854Z,0.00
2023-01-18T06:33:13.823Z,0.00
2023-01-18T06:34:14.357Z,0.00
2023-01-18T06:35:13.354Z,0.00
2023-01-18T06:36:13.997Z,0.00
2023-01-18T06:37:13.220Z,0.00
2023-01-18T06:38:13.166Z,0.00
2023-01-18T06:39:13.127Z,0.00
2023-01-18T06:40:13.053Z,0.00
2023-01-18T06:41:12.938Z,0.00
2023-01-18T06:42:13.100Z,0.00
2023-01-18T06:43:13.104Z,0.00
2023-01-18T06:44:12.958Z,0.00
2023-01-18T06:45:12.848Z,0.00
2023-01-18T06:46:13.809Z,0.00
2023-01-18T06:47:14.072Z,0.00
2023-01-18T06:48:14.627Z,0.00
2023-01-18T06:49:13.530Z,0.77
2023-01-18T06:50:13.680Z,0.77
2023-01-18T06:51:13.873Z,0.77
2023-01-18T06:52:13.813Z,0.77
2023-01-18T06:53:13.808Z,1.53
2023-01-18T06:54:12.987Z,1.53
2023-01-18T06:55:12.922Z,1.53
2023-01-18T06:56:13.005Z,2.29
2023-01-18T06:57:12.984Z,2.29
2023-01-18T06:58:12.873Z,3.06
2023-01-18T06:59:13.779Z,3.82
2023-01-18T07:00:13.657Z,4.59
2023-01-18T07:01:13.967Z,5.35
2023-01-18T07:02:12.998Z,6.12
2023-01-18T07:03:12.971Z,7.65
2023-01-18T07:04:12.848Z,8.41
2023-01-18T07:05:14.115Z,9.95
2023-01-18T07:06:13.496Z,12.24
2023-01-18T07:07:13.423Z,13.77
2023-01-18T07:08:13.467Z,15.30
2023-01-18T07:09:13.361Z,18.36
2023-01-18T07:10:16.093Z,21.42
2023-01-18T07:11:13.331Z,24.48
2023-01-18T07:12:13.212Z,27.54
2023-01-18T07:13:13.123Z,30.60
2023-01-18T07:14:13.274Z,33.66
2023-01-18T07:15:21.656Z,39.78
2023-01-18T07:16:13.463Z,42.84
2023-01-18T07:17:13.578Z,48.96
2023-01-18T07:18:13.551Z,55.08
2023-01-18T07:19:13.502Z,61.20
2023-01-18T07:20:13.539Z,67.32
2023-01-18T07:21:15.196Z,73.44
2023-01-18T07:22:13.448Z,79.56
2023-01-18T07:23:13.469Z,85.68
2023-01-18T07:24:13.480Z,97.92
2023-01-18T07:25:13.830Z,97.92
2023-01-18T07:26:14.006Z,110.16
2023-01-18T07:27:13.087Z,122.40
2023-01-18T07:28:13.246Z,134.64
2023-01-18T07:29:13.490Z,134.64
2023-01-18T07:30:13.753Z,146.88
2023-01-18T07:31:14.081Z,159.12
2023-01-18T07:32:13.101Z,171.36
2023-01-18T07:33:13.341Z,183.60
2023-01-18T07:34:13.405Z,195.84
2023-01-18T07:35:13.345Z,195.84
2023-01-18T07:36:13.473Z,220.32
2023-01-18T07:37:14.502Z,220.32
2023-01-18T07:38:13.496Z,244.80
2023-01-18T07:39:13.491Z,269.28
2023-01-18T07:40:13.394Z,293.76
2023-01-18T07:41:13.359Z,293.76
2023-01-18T07:42:13.368Z,318.24
2023-01-18T07:43:13.298Z,342.72
2023-01-18T07:44:13.300Z,367.20
2023-01-18T07:45:13.131Z,367.20
2023-01-18T07:46:13.541Z,391.68
2023-01-18T07:47:13.503Z,391.68
2023-01-18T07:48:13.585Z,440.64
2023-01-18T07:49:13.673Z,440.64
2023-01-18T07:50:13.577Z,489.60
2023-01-18T07:51:13.525Z,489.60
2023-01-18T07:52:13.560Z,538.56
2023-01-18T07:53:13.689Z,538.56
2023-01-18T07:54:13.678Z,587.52
2023-01-18T07:55:13.738Z,587.52
2023-01-18T07:56:13.701Z,636.48
2023-01-18T07:57:13.689Z,636.48
2023-01-18T07:58:13.940Z,685.44
2023-01-18T07:59:13.013Z,685.44
2023-01-18T08:00:13.087Z,734.40
2023-01-18T08:01:13.305Z,734.40
2023-01-18T08:02:14.687Z,783.36
2023-01-18T08:03:14.247Z,783.36
2023-01-18T08:04:13.179Z,783.36
2023-01-18T08:05:13.295Z,783.36
2023-01-18T08:06:13.350Z,881.28
2023-01-18T08:07:13.421Z,881.28
2023-01-18T08:08:13.384Z,881.28
2023-01-18T08:09:13.292Z,881.28
2023-01-18T08:10:13.214Z,881.28
2023-01-18T08:11:13.068Z,979.20
2023-01-18T08:12:12.872Z,979.20
2023-01-18T08:13:12.907Z,979.20
2023-01-18T08:14:12.779Z,979.20
2023-01-18T08:15:13.695Z,1175.04
2023-01-18T08:16:13.694Z,1175.04
2023-01-18T08:17:13.827Z,1175.04
2023-01-18T08:18:13.649Z,1175.04
2023-01-18T08:19:13.755Z,1175.04
2023-01-18T08:20:13.593Z,1272.96
2023-01-18T08:21:13.485Z,1272.96
2023-01-18T08:22:28.994Z,1272.96
2023-01-18T08:23:13.150Z,1272.96
2023-01-18T08:24:13.022Z,1272.96
2023-01-18T08:25:12.835Z,1370.88
2023-01-18T08:26:13.801Z,1370.88
2023-01-18T08:27:13.642Z,1370.88
2023-01-18T08:28:13.820Z,1370.88
2023-01-18T08:29:13.788Z,1468.80
2023-01-18T08:30:13.963Z,1468.80
2023-01-18T08:31:12.854Z,1468.80
2023-01-18T08:32:13.012Z,1468.80
2023-01-18T08:33:12.836Z,1566.72
2023-01-18T08:34:13.717Z,1566.72
2023-01-18T08:35:13.834Z,1566.72
2023-01-18T08:36:14.113Z,1566.72
2023-01-18T08:37:12.937Z,1762.56
2023-01-18T08:38:13.034Z,1762.56
2023-01-18T08:39:13.049Z,1762.56
2023-01-18T08:40:12.977Z,1762.56
2023-01-18T08:41:12.996Z,1762.56
2023-01-18T08:42:13.024Z,1958.40
2023-01-18T08:43:12.969Z,1958.40
2023-01-18T08:44:12.849Z,1958.40
2023-01-18T08:45:13.794Z,1958.40
2023-01-18T08:46:13.680Z,2154.24
2023-01-18T08:47:13.604Z,2154.24
2023-01-18T08:48:13.682Z,2154.24
2023-01-18T08:49:13.584Z,2350.08
2023-01-18T08:50:13.452Z,2350.08
2023-01-18T08:51:13.649Z,2545.92
2023-01-18T08:52:13.555Z,2545.92
2023-01-18T08:53:13.902Z,2545.92
2023-01-18T08:54:12.793Z,2741.76
2023-01-18T08:55:13.983Z,2741.76
2023-01-18T08:56:13.224Z,2741.76
2023-01-18T08:57:13.652Z,2937.60
2023-01-18T08:58:13.560Z,2937.60
2023-01-18T08:59:13.763Z,2937.60
2023-01-18T09:00:13.712Z,3133.44
2023-01-18T09:01:14.073Z,3133.44
2023-01-18T09:02:13.379Z,3133.44
2023-01-18T09:03:13.471Z,3133.44
2023-01-18T09:04:13.476Z,3133.44
2023-01-18T09:05:13.693Z,3133.44
2023-01-18T09:06:14.041Z,3133.44
2023-01-18T09:07:13.252Z,3133.44
2023-01-18T09:08:13.265Z,3133.44
2023-01-18T09:09:13.099Z,3133.44
2023-01-18T09:10:12.952Z,3133.44
2023-01-18T09:11:13.224Z,3133.44
2023-01-18T09:12:13.438Z,3133.44
2023-01-18T09:13:13.468Z,3133.44
2023-01-18T09:14:13.474Z,3133.44
2023-01-18T09:15:13.430Z,3133.44
2023-01-18T09:16:13.551Z,3133.44
2023-01-18T09:17:13.605Z,3133.44
2023-01-18T09:18:13.427Z,3133.44
2023-01-18T09:19:13.518Z,3133.44
2023-01-18T09:20:13.458Z,3133.44
2023-01-18T09:21:13.482Z,3133.44
2023-01-18T09:22:13.351Z,3133.44
2023-01-18T09:23:13.287Z,3133.44
2023-01-18T09:24:13.211Z,3133.44
2023-01-18T09:25:13.187Z,3525.12
2023-01-18T09:26:13.255Z,3525.12
2023-01-18T09:27:13.302Z,3525.12
2023-01-18T09:28:13.230Z,3525.12
2023-01-18T09:29:13.248Z,3525.12
2023-01-18T09:30:13.120Z,3525.12
2023-01-18T09:31:13.455Z,3525.12
2023-01-18T09:32:13.607Z,3525.12
2023-01-18T09:33:13.715Z,3525.12
2023-01-18T09:34:19.334Z,3525.12
2023-01-18T09:35:13.077Z,3525.12
2023-01-18T09:36:13.021Z,3525.12
2023-01-18T09:37:12.930Z,3525.12
2023-01-18T09:38:12.874Z,3525.12
2023-01-18T09:39:13.837Z,3525.12
2023-01-18T09:40:13.760Z,3525.12
2023-01-18T09:41:14.839Z,3133.44
2023-01-18T09:42:12.873Z,3133.44
2023-01-18T09:43:13.878Z,3133.44
2023-01-18T09:44:13.911Z,3133.44
2023-01-18T09:45:12.905Z,3133.44
2023-01-18T09:46:12.886Z,3133.44
2023-01-18T09:47:13.110Z,3525.12
2023-01-18T09:48:13.070Z,3525.12
2023-01-18T09:49:13.076Z,3525.12
2023-01-18T09:50:13.274Z,3916.80
2023-01-18T09:51:13.449Z,3916.80
2023-01-18T09:52:13.547Z,3916.80
2023-01-18T09:53:13.695Z,4308.48
2023-01-18T09:54:13.658Z,4308.48
2023-01-18T09:55:13.779Z,4700.16
2023-01-18T09:56:13.987Z,4700.16
2023-01-18T09:57:13.055Z,4308.48
2023-01-18T09:58:32.918Z,4308.48
2023-01-18T09:59:12.878Z,5091.84
2023-01-18T10:00:13.072Z,5091.84
2023-01-18T10:01:13.252Z,5091.84
2023-01-18T10:02:13.307Z,5091.84
2023-01-18T10:03:13.492Z,5091.84
2023-01-18T10:04:13.284Z,5091.84
2023-01-18T10:05:13.395Z,5091.84
2023-01-18T10:06:13.367Z,5483.52
2023-01-18T10:07:13.292Z,5483.52
2023-01-18T10:08:13.189Z,5483.52
2023-01-18T10:09:13.110Z,5483.52
2023-01-18T10:10:13.048Z,5483.52
2023-01-18T10:11:13.259Z,5483.52
2023-01-18T10:12:13.584Z,5875.20
2023-01-18T10:13:13.699Z,5875.20
2023-01-18T10:14:13.827Z,5875.20
2023-01-18T10:15:13.858Z,5875.20
2023-01-18T10:16:14.806Z,6266.88
2023-01-18T10:17:12.949Z,6266.88
2023-01-18T10:18:12.877Z,6266.88
2023-01-18T10:19:13.803Z,6266.88
2023-01-18T10:20:13.712Z,6266.88
2023-01-18T10:21:13.599Z,6266.88
2023-01-18T10:22:13.502Z,5875.20
2023-01-18T10:23:13.659Z,5875.20
2023-01-18T10:24:13.510Z,5483.52
2023-01-18T10:25:13.472Z,5875.20
2023-01-18T10:26:13.433Z,5875.20
2023-01-18T10:27:13.306Z,5875.20
2023-01-18T10:28:13.600Z,5875.20
2023-01-18T10:29:13.607Z,6266.88
2023-01-18T10:30:13.843Z,5483.52
2023-01-18T10:31:14.025Z,5483.52
2023-01-18T10:33:06.686Z,6266.88
2023-01-18T10:33:14.894Z,6266.88
2023-01-18T10:34:13.033Z,7050.24
2023-01-18T10:35:35.787Z,7050.24
2023-01-18T10:36:38.848Z,7050.24
2023-01-18T10:37:14.317Z,5875.20
2023-01-18T10:38:13.366Z,7050.24
2023-01-18T10:39:13.469Z,7050.24
2023-01-18T10:40:13.479Z,7050.24
2023-01-18T10:41:13.767Z,6266.88
2023-01-18T10:42:13.714Z,6266.88
2023-01-18T10:43:13.891Z,5875.20
2023-01-18T10:44:12.997Z,5483.52
2023-01-18T10:45:13.177Z,6266.88
2023-01-18T10:46:13.584Z,6266.88
2023-01-18T10:47:13.712Z,6266.88
2023-01-18T10:48:18.982Z,6266.88
2023-01-18T10:49:12.979Z,6266.88
2023-01-18T10:50:12.901Z,6266.88
2023-01-18T10:51:13.918Z,6266.88
2023-01-18T10:52:12.872Z,7050.24
2023-01-18T10:53:14.154Z,7050.24
2023-01-18T10:54:13.076Z,7050.24
2023-01-18T10:55:13.144Z,7833.60
2023-01-18T10:56:13.237Z,7833.60
2023-01-18T10:57:13.176Z,7833.60
2023-01-18T10:58:13.254Z,7833.60
2023-01-18T10:59:13.236Z,7833.60
2023-01-18T11:00:13.165Z,8616.96
2023-01-18T11:01:13.197Z,8616.96
2023-01-18T11:02:13.438Z,8616.96
2023-01-18T11:03:13.480Z,7050.24
2023-01-18T11:04:13.436Z,7833.60
2023-01-18T11:05:13.415Z,7833.60
2023-01-18T11:06:13.693Z,7050.24
2023-01-18T11:07:13.747Z,6266.88
2023-01-18T11:08:13.835Z,6266.88
2023-01-18T11:09:13.758Z,6266.88
2023-01-18T11:10:13.822Z,6266.88
2023-01-18T11:11:14.255Z,7050.24
2023-01-18T11:12:13.201Z,7833.60
2023-01-18T11:13:13.073Z,7833.60
2023-01-18T11:14:13.268Z,7833.60
2023-01-18T11:15:13.260Z,8616.96
2023-01-18T11:16:13.244Z,8616.96
2023-01-18T11:17:13.227Z,8616.96
2023-01-18T11:18:13.085Z,7833.60
2023-01-18T11:19:13.049Z,7833.60
2023-01-18T11:20:13.015Z,7050.24
2023-01-18T11:21:14.243Z,7050.24
2023-01-18T11:22:13.671Z,7050.24
2023-01-18T11:23:13.650Z,7833.60
2023-01-18T11:24:13.821Z,7833.60
2023-01-18T11:25:13.731Z,7833.60
2023-01-18T11:26:13.634Z,7833.60
2023-01-18T11:27:13.710Z,7833.60
2023-01-18T11:28:13.963Z,8616.96
2023-01-18T11:29:12.947Z,8616.96
2023-01-18T11:30:12.873Z,8616.96
2023-01-18T11:31:14.146Z,7833.60
2023-01-18T11:32:13.218Z,7833.60
2023-01-18T11:33:13.164Z,7833.60
2023-01-18T11:34:13.312Z,7833.60
2023-01-18T11:35:13.368Z,7833.60
2023-01-18T11:36:13.233Z,8616.96
2023-01-18T11:37:13.374Z,8616.96
2023-01-18T11:38:13.319Z,8616.96
2023-01-18T11:39:13.193Z,7833.60
2023-01-18T11:40:13.278Z,7833.60
2023-01-18T11:41:13.403Z,7833.60
2023-01-18T11:42:13.502Z,8616.96
2023-01-18T11:43:14.641Z,7833.60
2023-01-18T11:44:13.931Z,7833.60
2023-01-18T11:45:12.848Z,7833.60
2023-01-18T11:46:18.920Z,8616.96
2023-01-18T11:47:12.813Z,8616.96
2023-01-18T11:48:13.871Z,7833.60
2023-01-18T11:49:13.813Z,7833.60
2023-01-18T11:50:22.157Z,8616.96
2023-01-18T11:51:13.672Z,9400.32
2023-01-18T11:52:13.646Z,9400.32
2023-01-18T11:53:13.917Z,9400.32
2023-01-18T11:54:12.816Z,10183.68
2023-01-18T11:55:13.797Z,10183.68
2023-01-18T11:56:13.766Z,10967.04
2023-01-18T11:57:13.768Z,10967.04
2023-01-18T11:58:13.691Z,10183.68
2023-01-18T11:59:13.874Z,10183.68
2023-01-18T12:00:13.924Z,11750.40
2023-01-18T12:01:13.355Z,12533.76
2023-01-18T12:02:13.476Z,12533.76
2023-01-18T12:03:13.511Z,14100.48
2023-01-18T12:04:13.422Z,15667.20
2023-01-18T12:05:13.535Z,15667.20
2023-01-18T12:06:18.586Z,15667.20
2023-01-18T12:07:26.947Z,15667.20
2023-01-18T12:08:12.937Z,14100.48
2023-01-18T12:09:19.848Z,14100.48
2023-01-18T12:10:14.027Z,14100.48
2023-01-18T12:11:18.010Z,14100.48
2023-01-18T12:12:19.094Z,14100.48
2023-01-18T12:13:13.840Z,12533.76
2023-01-18T12:14:13.761Z,12533.76
2023-01-18T12:15:13.912Z,14100.48
2023-01-18T12:16:12.827Z,14100.48
2023-01-18T12:17:39.986Z,12533.76
2023-01-18T12:18:24.917Z,12533.76
2023-01-18T12:19:13.007Z,12533.76
2023-01-18T12:20:18.377Z,12533.76
2023-01-18T12:21:19.842Z,12533.76
2023-01-18T12:22:13.790Z,12533.76
2023-01-18T12:23:13.903Z,12533.76
2023-01-18T12:24:12.812Z,12533.76
2023-01-18T12:25:13.677Z,10967.04
2023-01-18T12:26:13.949Z,12533.76
2023-01-18T12:27:13.032Z,12533.76
2023-01-18T12:28:12.971Z,14100.48
2023-01-18T12:29:13.014Z,14100.48
2023-01-18T12:30:14.106Z,14100.48
2023-01-18T12:31:13.611Z,14100.48
2023-01-18T12:32:13.587Z,14100.48
2023-01-18T12:33:18.862Z,11750.40
2023-01-18T12:34:13.718Z,14100.48
2023-01-18T12:35:23.638Z,14100.48
2023-01-18T12:36:12.864Z,14100.48
2023-01-18T12:37:14.085Z,14100.48
2023-01-18T12:38:13.700Z,14100.48
2023-01-18T12:39:14.019Z,12533.76
2023-01-18T12:40:13.102Z,14100.48
2023-01-18T12:41:13.064Z,14100.48
2023-01-18T12:42:13.293Z,14100.48
2023-01-18T12:43:13.333Z,12533.76
2023-01-18T12:44:13.677Z,12533.76
2023-01-18T12:45:13.835Z,12533.76